X  Sluiten METAR luchtvaart weer gegevens      EDDH Hamburg Helmut Schmidt Airport
Temperatuur
12°C Temperatuur
7°C Dauwpunt
72% Vochtigheid



Wind
6 MPH
10 KM/U
3 M/S
5 KTS



230°
ZW
Huidig weer

Helder Helder
Luchtdruk 1026.92 (hPa) - 30.32 (inHg)
Zicht 6.2 (mijl) - 10 (km)
Vliegveld
Vliegveld code EDDH

Locatie : Hamburg Helmut Schmidt Airport
Afstand: 11 (mi)

Metar:
EDDH 061750Z AUTO 23005KT CAVOK 12/07 Q1027 NOSIG

Tijd: 06-10-2022 19:50 CEST